createdAt,value
2018-12-09T00:01:14.050Z,95.25
2018-12-09T00:03:45.844Z,97.81
2018-12-09T00:06:17.645Z,97.54
2018-12-09T00:08:49.652Z,99.99
2018-12-09T00:11:19.472Z,100.00
2018-12-09T00:13:49.296Z,100.00
2018-12-09T00:16:19.089Z,100.00
2018-12-09T00:18:48.871Z,100.00
2018-12-09T00:21:18.767Z,100.00
2018-12-09T00:23:48.701Z,100.00
2018-12-09T00:26:20.483Z,99.91
2018-12-09T00:28:50.375Z,100.00
2018-12-09T00:31:20.276Z,99.56
2018-12-09T00:33:50.086Z,100.00
2018-12-09T00:36:19.999Z,100.00
2018-12-09T00:38:49.887Z,100.00
2018-12-09T00:41:19.691Z,100.00
2018-12-09T00:43:50.640Z,100.00
2018-12-09T00:46:20.441Z,100.00
2018-12-09T00:48:50.268Z,100.00
2018-12-09T00:51:20.084Z,100.00
2018-12-09T00:53:49.913Z,100.00
2018-12-09T00:56:19.691Z,100.00
2018-12-09T00:58:49.504Z,100.00
2018-12-09T01:01:19.489Z,100.00
2018-12-09T01:03:49.389Z,100.00
2018-12-09T01:06:19.287Z,100.00
2018-12-09T01:08:49.073Z,100.00
2018-12-09T01:11:18.892Z,100.00
2018-12-09T01:13:48.669Z,100.00
2018-12-09T01:16:18.716Z,100.00
2018-12-09T01:18:48.521Z,100.00
2018-12-09T01:21:18.273Z,100.00
2018-12-09T01:23:48.204Z,100.00
2018-12-09T01:26:18.093Z,100.00
2018-12-09T01:28:47.876Z,100.00
2018-12-09T01:31:17.773Z,100.00
2018-12-09T01:33:47.718Z,100.00
2018-12-09T01:36:17.556Z,100.00
2018-12-09T01:38:47.600Z,100.00
2018-12-09T01:41:17.480Z,100.00
2018-12-09T01:43:47.267Z,100.00
2018-12-09T01:46:17.112Z,100.00
2018-12-09T01:48:47.356Z,100.00
2018-12-09T01:51:17.255Z,100.00
2018-12-09T01:54:19.065Z,100.00
2018-12-09T01:56:48.940Z,100.00
2018-12-09T01:59:18.870Z,100.00
2018-12-09T02:01:48.704Z,100.00
2018-12-09T02:04:19.042Z,100.00
2018-12-09T02:06:49.180Z,100.00
2018-12-09T02:09:19.152Z,100.00
2018-12-09T02:11:49.113Z,100.00
2018-12-09T02:14:19.388Z,100.00
2018-12-09T02:16:49.240Z,100.00
2018-12-09T02:19:22.726Z,100.00
2018-12-09T02:21:53.240Z,100.00
2018-12-09T02:24:23.981Z,100.00
2018-12-09T02:26:53.896Z,100.00
2018-12-09T02:29:23.725Z,100.00
2018-12-09T02:31:53.653Z,100.00
2018-12-09T02:34:24.266Z,100.00
2018-12-09T02:36:55.108Z,100.00
2018-12-09T02:39:24.916Z,100.00
2018-12-09T02:41:54.663Z,100.00
2018-12-09T02:44:24.656Z,100.00
2018-12-09T02:46:55.464Z,100.00
2018-12-09T02:49:25.299Z,100.00
2018-12-09T02:51:55.471Z,100.00
2018-12-09T02:54:25.577Z,100.00
2018-12-09T02:56:55.336Z,100.00
2018-12-09T02:59:25.207Z,100.00
2018-12-09T03:01:55.986Z,100.00
2018-12-09T03:04:26.230Z,100.00
2018-12-09T03:06:56.025Z,100.00
2018-12-09T03:09:25.875Z,100.00
2018-12-09T03:11:55.667Z,100.00
2018-12-09T03:14:25.485Z,100.00
2018-12-09T03:16:55.273Z,100.00
2018-12-09T03:19:25.107Z,100.00
2018-12-09T03:21:54.912Z,100.00
2018-12-09T03:24:24.736Z,100.00
2018-12-09T03:26:55.155Z,100.00
2018-12-09T03:29:25.204Z,100.00
2018-12-09T03:31:55.077Z,100.00
2018-12-09T03:34:24.900Z,100.00
2018-12-09T03:36:54.669Z,100.00
2018-12-09T03:39:24.533Z,100.00
2018-12-09T03:41:54.333Z,100.00
2018-12-09T03:44:24.161Z,100.00
2018-12-09T03:46:54.155Z,100.00
2018-12-09T03:49:24.055Z,100.00
2018-12-09T03:51:53.800Z,100.00
2018-12-09T03:54:23.617Z,100.00
2018-12-09T03:56:53.955Z,100.00
2018-12-09T03:59:23.753Z,100.00
2018-12-09T04:01:53.908Z,100.00
2018-12-09T04:04:23.680Z,100.00
2018-12-09T04:06:53.491Z,100.00
2018-12-09T04:09:24.330Z,100.00
2018-12-09T04:11:54.080Z,100.00
2018-12-09T04:14:23.893Z,100.00
2018-12-09T04:16:53.722Z,100.00
2018-12-09T04:19:23.636Z,100.00
2018-12-09T04:21:53.480Z,100.00
2018-12-09T04:24:23.479Z,100.00
2018-12-09T04:26:53.420Z,100.00
2018-12-09T04:29:23.561Z,100.00
2018-12-09T04:31:53.351Z,100.00
2018-12-09T04:34:24.205Z,100.00
2018-12-09T04:36:53.952Z,100.00
2018-12-09T04:39:24.140Z,100.00
2018-12-09T04:41:53.926Z,100.00
2018-12-09T04:44:23.760Z,100.00
2018-12-09T04:46:53.558Z,100.00
2018-12-09T04:49:23.435Z,100.00
2018-12-09T04:51:57.942Z,100.00
2018-12-09T04:54:28.594Z,100.00
2018-12-09T04:56:59.220Z,100.00
2018-12-09T04:59:31.769Z,100.00
2018-12-09T05:02:01.556Z,100.00
2018-12-09T05:04:31.399Z,100.00
2018-12-09T05:07:01.181Z,100.00
2018-12-09T05:09:31.136Z,100.00
2018-12-09T05:12:00.993Z,100.00
2018-12-09T05:14:30.864Z,100.00
2018-12-09T05:17:00.762Z,100.00
2018-12-09T05:19:30.615Z,100.00
2018-12-09T05:22:00.491Z,100.00
2018-12-09T05:24:30.474Z,100.00
2018-12-09T05:27:00.303Z,100.00
2018-12-09T05:29:30.136Z,100.00
2018-12-09T05:32:00.244Z,100.00
2018-12-09T05:34:30.098Z,100.00
2018-12-09T05:36:59.908Z,100.00
2018-12-09T05:39:29.799Z,100.00
2018-12-09T05:41:59.638Z,100.00
2018-12-09T05:44:29.452Z,100.00
2018-12-09T05:46:59.233Z,100.00
2018-12-09T05:49:29.063Z,100.00
2018-12-09T05:51:58.879Z,100.00
2018-12-09T05:54:28.724Z,100.00
2018-12-09T05:56:58.528Z,100.00
2018-12-09T05:59:28.352Z,100.00
2018-12-09T06:02:08.072Z,100.00
2018-12-09T06:04:37.942Z,100.00
2018-12-09T06:07:07.789Z,100.00
2018-12-09T06:09:37.656Z,100.00
2018-12-09T06:12:07.424Z,100.00
2018-12-09T06:14:37.831Z,100.00
2018-12-09T06:17:07.664Z,100.00
2018-12-09T06:19:37.493Z,100.00
2018-12-09T06:22:07.292Z,100.00
2018-12-09T06:24:37.088Z,100.00
2018-12-09T06:27:06.918Z,100.00
2018-12-09T06:29:36.720Z,100.00
2018-12-09T06:32:06.617Z,100.00
2018-12-09T06:34:36.671Z,100.00
2018-12-09T06:37:06.463Z,100.00
2018-12-09T06:39:36.487Z,100.00
2018-12-09T06:42:06.304Z,100.00
2018-12-09T06:44:36.048Z,100.00
2018-12-09T06:47:06.200Z,100.00
2018-12-09T06:49:37.082Z,100.00
2018-12-09T06:52:06.883Z,100.00
2018-12-09T06:54:36.689Z,100.00
2018-12-09T06:57:06.632Z,100.00
2018-12-09T06:59:36.504Z,100.00
2018-12-09T07:02:06.369Z,100.00
2018-12-09T07:04:36.107Z,100.00
2018-12-09T07:07:05.984Z,100.00
2018-12-09T07:09:36.268Z,100.00
2018-12-09T07:12:06.104Z,100.00
2018-12-09T07:14:35.945Z,100.00
2018-12-09T07:17:06.004Z,100.00
2018-12-09T07:19:35.835Z,100.00
2018-12-09T07:22:05.711Z,100.00
2018-12-09T07:24:35.766Z,100.00
2018-12-09T07:27:05.753Z,100.00
2018-12-09T07:29:35.652Z,100.00
2018-12-09T07:32:05.996Z,100.00
2018-12-09T07:34:35.840Z,100.00
2018-12-09T07:37:05.841Z,100.00
2018-12-09T07:39:35.660Z,100.00
2018-12-09T07:42:05.465Z,100.00
2018-12-09T07:44:36.276Z,100.00
2018-12-09T07:47:06.073Z,100.00
2018-12-09T07:49:35.892Z,100.00
2018-12-09T07:52:05.671Z,100.00
2018-12-09T07:54:35.472Z,100.00
2018-12-09T07:57:05.357Z,100.00
2018-12-09T07:59:35.245Z,100.00
2018-12-09T08:02:05.251Z,100.00
2018-12-09T08:04:35.018Z,100.00
2018-12-09T08:07:04.872Z,100.00
2018-12-09T08:09:34.702Z,100.00
2018-12-09T08:12:04.684Z,100.00
2018-12-09T08:14:34.488Z,100.00
2018-12-09T08:17:04.385Z,100.00
2018-12-09T08:19:34.248Z,100.00
2018-12-09T08:22:04.184Z,100.00
2018-12-09T08:24:33.986Z,100.00
2018-12-09T08:27:03.904Z,100.00
2018-12-09T08:29:33.676Z,100.00
2018-12-09T08:32:03.540Z,100.00
2018-12-09T08:34:33.437Z,100.00
2018-12-09T08:37:03.450Z,100.00
2018-12-09T08:39:33.247Z,100.00
2018-12-09T08:42:03.304Z,100.00
2018-12-09T08:44:33.325Z,100.00
2018-12-09T08:47:03.321Z,100.00
2018-12-09T08:49:33.163Z,100.00
2018-12-09T08:52:04.201Z,100.00
2018-12-09T08:54:34.093Z,100.00
2018-12-09T08:57:04.064Z,100.00
2018-12-09T08:59:33.935Z,100.00
2018-12-09T09:02:04.032Z,100.00
2018-12-09T09:04:34.004Z,100.00
2018-12-09T09:07:04.231Z,100.00
2018-12-09T09:09:34.101Z,100.00
2018-12-09T09:12:05.056Z,100.00
2018-12-09T09:14:34.856Z,100.00
2018-12-09T09:17:04.952Z,100.00
2018-12-09T09:19:34.780Z,97.53
2018-12-09T09:22:04.735Z,97.79
2018-12-09T09:24:34.620Z,97.45
2018-12-09T09:27:04.637Z,98.57
2018-12-09T09:29:35.517Z,94.43
2018-12-09T09:32:05.536Z,95.68
2018-12-09T09:34:35.302Z,95.30
2018-12-09T09:37:05.253Z,94.25
2018-12-09T09:39:35.072Z,93.82
2018-12-09T09:42:04.926Z,93.78
2018-12-09T09:44:34.905Z,93.75
2018-12-09T09:47:04.979Z,89.37
2018-12-09T09:49:34.889Z,88.62
2018-12-09T09:52:04.935Z,90.51
2018-12-09T09:54:34.954Z,91.27
2018-12-09T09:57:04.857Z,90.72
2018-12-09T09:59:34.753Z,90.44
2018-12-09T10:02:04.747Z,90.04
2018-12-09T10:04:34.582Z,90.27
2018-12-09T10:07:04.408Z,89.66
2018-12-09T10:09:34.240Z,89.59
2018-12-09T10:12:04.586Z,88.38
2018-12-09T10:14:34.418Z,88.77
2018-12-09T10:17:04.521Z,88.37
2018-12-09T10:19:34.380Z,88.64
2018-12-09T10:22:04.432Z,90.01
2018-12-09T10:24:34.893Z,89.85
2018-12-09T10:27:04.968Z,88.61
2018-12-09T10:29:34.948Z,90.12
2018-12-09T10:32:04.796Z,91.29
2018-12-09T10:34:38.683Z,90.67
2018-12-09T10:37:06.524Z,90.17
2018-12-09T10:39:36.356Z,91.48
2018-12-09T10:42:06.194Z,91.03
2018-12-09T10:44:36.050Z,89.19
2018-12-09T10:47:05.881Z,90.36
2018-12-09T10:49:35.730Z,88.96
2018-12-09T10:52:05.558Z,87.89
2018-12-09T10:54:35.448Z,88.30
2018-12-09T10:57:05.369Z,88.25
2018-12-09T10:59:35.489Z,87.99
2018-12-09T11:02:10.365Z,84.66
2018-12-09T11:04:40.191Z,84.46
2018-12-09T11:07:10.029Z,82.88
2018-12-09T11:09:39.867Z,83.00
2018-12-09T11:12:09.708Z,83.24
2018-12-09T11:14:39.518Z,80.98
2018-12-09T11:17:09.373Z,84.22
2018-12-09T11:19:39.188Z,86.45
2018-12-09T11:22:09.028Z,86.51
2018-12-09T11:24:38.847Z,83.44
2018-12-09T11:27:08.976Z,80.96
2018-12-09T11:29:38.893Z,84.06
2018-12-09T11:32:08.921Z,84.34
2018-12-09T11:34:38.825Z,80.27
2018-12-09T11:37:08.722Z,74.38
2018-12-09T11:39:38.746Z,66.25
2018-12-09T11:42:08.685Z,60.96
2018-12-09T11:44:38.846Z,58.93
2018-12-09T11:47:08.617Z,67.82
2018-12-09T11:49:38.485Z,71.65
2018-12-09T11:52:08.276Z,76.64
2018-12-09T11:54:38.144Z,80.77
2018-12-09T11:57:08.148Z,82.90
2018-12-09T11:59:37.980Z,82.95
2018-12-09T12:02:07.880Z,81.07
2018-12-09T12:04:39.565Z,83.05
2018-12-09T12:07:09.503Z,86.39
2018-12-09T12:09:39.325Z,92.08
2018-12-09T12:12:09.160Z,95.24
2018-12-09T12:14:40.023Z,96.61
2018-12-09T12:17:09.879Z,97.12
2018-12-09T12:19:40.004Z,97.89
2018-12-09T12:22:09.857Z,98.41
2018-12-09T12:24:39.688Z,99.48
2018-12-09T12:27:09.531Z,98.06
2018-12-09T12:29:39.560Z,94.62
2018-12-09T12:32:10.036Z,92.05
2018-12-09T12:34:40.064Z,91.24
2018-12-09T12:37:09.940Z,86.49
2018-12-09T12:39:39.711Z,84.18
2018-12-09T12:42:09.649Z,83.30
2018-12-09T12:44:39.696Z,87.43
2018-12-09T12:47:09.641Z,87.67
2018-12-09T12:49:39.572Z,87.72
2018-12-09T12:52:09.554Z,88.85
2018-12-09T12:54:39.341Z,88.00
2018-12-09T12:57:09.164Z,87.81
2018-12-09T12:59:38.960Z,86.72
2018-12-09T13:02:08.880Z,85.32
2018-12-09T13:04:38.817Z,85.45
2018-12-09T13:07:08.579Z,85.53
2018-12-09T13:09:38.412Z,85.79
2018-12-09T13:12:08.245Z,87.32
2018-12-09T13:14:38.040Z,88.08
2018-12-09T13:17:07.959Z,90.01
2018-12-09T13:19:37.760Z,89.17
2018-12-09T13:22:07.568Z,89.04
2018-12-09T13:24:37.389Z,87.80
2018-12-09T13:27:07.318Z,87.00
2018-12-09T13:29:37.251Z,86.96
2018-12-09T13:32:07.485Z,88.39
2018-12-09T13:34:37.372Z,91.06
2018-12-09T13:37:08.320Z,92.00
2018-12-09T13:39:38.092Z,93.84
2018-12-09T13:42:08.133Z,96.52
2018-12-09T13:44:37.948Z,97.40
2018-12-09T13:47:07.775Z,96.55
2018-12-09T13:49:37.567Z,95.85
2018-12-09T13:52:07.676Z,93.91
2018-12-09T13:54:37.563Z,92.05
2018-12-09T13:57:07.464Z,90.55
2018-12-09T13:59:37.696Z,90.17
2018-12-09T14:02:07.596Z,86.54
2018-12-09T14:04:37.607Z,86.15
2018-12-09T14:07:07.597Z,82.19
2018-12-09T14:09:37.611Z,76.90
2018-12-09T14:12:07.469Z,76.13
2018-12-09T14:14:37.279Z,74.01
2018-12-09T14:17:07.404Z,74.30
2018-12-09T14:19:37.310Z,78.86
2018-12-09T14:22:07.429Z,84.40
2018-12-09T14:24:37.355Z,86.26
2018-12-09T14:27:07.382Z,88.79
2018-12-09T14:29:37.411Z,91.32
2018-12-09T14:32:07.917Z,93.39
2018-12-09T14:34:38.036Z,93.96
2018-12-09T14:37:07.848Z,96.98
2018-12-09T14:39:37.625Z,100.00
2018-12-09T14:42:07.621Z,100.00
2018-12-09T14:44:38.861Z,100.00
2018-12-09T14:47:09.868Z,100.00
2018-12-09T14:49:39.739Z,100.00
2018-12-09T14:52:09.584Z,100.00
2018-12-09T14:54:39.573Z,100.00
2018-12-09T14:57:09.328Z,100.00
2018-12-09T14:59:39.194Z,100.00
2018-12-09T15:02:08.988Z,100.00
2018-12-09T15:04:38.851Z,100.00
2018-12-09T15:07:08.969Z,100.00
2018-12-09T15:09:39.064Z,100.00
2018-12-09T15:12:10.168Z,100.00
2018-12-09T15:14:40.027Z,100.00
2018-12-09T15:17:09.884Z,100.00
2018-12-09T15:19:39.740Z,100.00
2018-12-09T15:22:09.535Z,100.00
2018-12-09T15:24:41.499Z,100.00
2018-12-09T15:27:11.205Z,100.00
2018-12-09T15:29:41.056Z,100.00
2018-12-09T15:32:10.831Z,100.00
2018-12-09T15:34:41.716Z,100.00
2018-12-09T15:37:11.619Z,100.00
2018-12-09T15:39:42.644Z,100.00
2018-12-09T15:42:12.498Z,100.00
2018-12-09T15:44:42.374Z,100.00
2018-12-09T15:47:12.187Z,100.00
2018-12-09T15:49:42.052Z,100.00
2018-12-09T15:52:11.895Z,100.00
2018-12-09T15:54:41.784Z,100.00
2018-12-09T15:57:11.617Z,100.00
2018-12-09T15:59:43.684Z,100.00
2018-12-09T16:02:13.611Z,100.00
2018-12-09T16:04:43.771Z,100.00
2018-12-09T16:07:13.545Z,100.00
2018-12-09T16:09:43.412Z,100.00
2018-12-09T16:12:14.213Z,100.00
2018-12-09T16:14:44.157Z,100.00
2018-12-09T16:17:14.171Z,100.00
2018-12-09T16:19:45.048Z,100.00
2018-12-09T16:22:16.888Z,100.00
2018-12-09T16:24:46.708Z,100.00
2018-12-09T16:27:22.580Z,100.00
2018-12-09T16:29:54.365Z,100.00
2018-12-09T16:32:24.551Z,100.00
2018-12-09T16:34:54.582Z,100.00
2018-12-09T16:37:24.529Z,100.00
2018-12-09T16:39:54.384Z,100.00
2018-12-09T16:42:24.276Z,100.00
2018-12-09T16:44:54.063Z,100.00
2018-12-09T16:47:23.923Z,100.00
2018-12-09T16:49:53.953Z,100.00
2018-12-09T16:52:23.944Z,100.00
2018-12-09T16:54:53.776Z,100.00
2018-12-09T16:57:23.661Z,100.00
2018-12-09T16:59:53.460Z,100.00
2018-12-09T17:02:23.431Z,100.00
2018-12-09T17:04:53.702Z,100.00
2018-12-09T17:07:23.553Z,100.00
2018-12-09T17:09:53.580Z,100.00
2018-12-09T17:12:23.648Z,100.00
2018-12-09T17:14:53.452Z,100.00
2018-12-09T17:17:23.272Z,100.00
2018-12-09T17:19:53.117Z,100.00
2018-12-09T17:22:23.267Z,100.00
2018-12-09T17:24:53.279Z,100.00
2018-12-09T17:27:30.228Z,100.00
2018-12-09T17:30:00.138Z,100.00
2018-12-09T17:32:30.576Z,100.00
2018-12-09T17:35:00.450Z,100.00
2018-12-09T17:37:30.337Z,100.00
2018-12-09T17:40:00.377Z,100.00
2018-12-09T17:42:30.224Z,100.00
2018-12-09T17:45:00.204Z,100.00
2018-12-09T17:47:30.444Z,100.00
2018-12-09T17:50:00.388Z,100.00
2018-12-09T17:52:30.222Z,100.00
2018-12-09T17:55:00.262Z,100.00
2018-12-09T17:57:30.360Z,100.00
2018-12-09T18:00:00.775Z,100.00
2018-12-09T18:02:31.756Z,100.00
2018-12-09T18:05:01.601Z,100.00
2018-12-09T18:07:31.494Z,100.00
2018-12-09T18:10:01.356Z,100.00
2018-12-09T18:12:31.196Z,100.00
2018-12-09T18:15:01.104Z,100.00
2018-12-09T18:17:32.047Z,100.00
2018-12-09T18:20:01.937Z,100.00
2018-12-09T18:22:31.801Z,100.00
2018-12-09T18:25:02.380Z,100.00
2018-12-09T18:27:32.294Z,100.00
2018-12-09T18:30:02.068Z,100.00
2018-12-09T18:32:32.426Z,100.00
2018-12-09T18:35:02.381Z,100.00
2018-12-09T18:37:32.600Z,100.00
2018-12-09T18:40:04.031Z,100.00
2018-12-09T18:42:34.187Z,100.00
2018-12-09T18:45:05.921Z,100.00
2018-12-09T18:47:36.046Z,100.00
2018-12-09T18:50:07.055Z,100.00
2018-12-09T18:52:36.996Z,100.00
2018-12-09T18:55:07.216Z,100.00
2018-12-09T18:57:38.186Z,100.00
2018-12-09T19:00:08.341Z,100.00
2018-12-09T19:02:38.364Z,100.00
2018-12-09T19:05:08.277Z,100.00
2018-12-09T19:07:38.188Z,100.00
2018-12-09T19:10:08.208Z,100.00
2018-12-09T19:12:38.049Z,100.00
2018-12-09T19:15:10.025Z,100.00
2018-12-09T19:17:39.854Z,100.00
2018-12-09T19:20:09.828Z,100.00
2018-12-09T19:22:39.665Z,100.00
2018-12-09T19:25:09.641Z,100.00
2018-12-09T19:27:39.460Z,100.00
2018-12-09T19:30:09.248Z,100.00
2018-12-09T19:32:39.117Z,100.00
2018-12-09T19:35:09.021Z,100.00
2018-12-09T19:37:39.867Z,100.00
2018-12-09T19:40:09.628Z,100.00
2018-12-09T19:42:39.454Z,100.00
2018-12-09T19:45:09.385Z,100.00
2018-12-09T19:47:39.230Z,100.00
2018-12-09T19:50:09.891Z,100.00
2018-12-09T19:52:40.388Z,100.00
2018-12-09T19:55:10.281Z,100.00
2018-12-09T19:57:40.292Z,100.00
2018-12-09T20:00:10.173Z,100.00
2018-12-09T20:02:40.014Z,100.00
2018-12-09T20:05:10.256Z,100.00
2018-12-09T20:07:40.692Z,100.00
2018-12-09T20:10:10.664Z,100.00
2018-12-09T20:12:40.533Z,100.00
2018-12-09T20:15:10.540Z,100.00
2018-12-09T20:17:40.421Z,100.00
2018-12-09T20:20:10.552Z,100.00
2018-12-09T20:22:41.387Z,100.00
2018-12-09T20:25:11.210Z,100.00
2018-12-09T20:27:41.193Z,100.00
2018-12-09T20:30:11.347Z,100.00
2018-12-09T20:32:41.468Z,100.00
2018-12-09T20:35:11.401Z,100.00
2018-12-09T20:37:41.560Z,100.00
2018-12-09T20:40:11.417Z,100.00
2018-12-09T20:42:48.034Z,100.00
2018-12-09T20:45:13.049Z,100.00
2018-12-09T20:47:42.965Z,100.00
2018-12-09T20:50:12.905Z,100.00
2018-12-09T20:52:42.876Z,100.00
2018-12-09T20:55:13.121Z,100.00
2018-12-09T20:57:42.969Z,100.00
2018-12-09T21:00:13.116Z,100.00
2018-12-09T21:02:43.223Z,100.00
2018-12-09T21:05:13.432Z,100.00
2018-12-09T21:07:43.276Z,100.00
2018-12-09T21:10:13.073Z,100.00
2018-12-09T21:12:42.863Z,100.00
2018-12-09T21:15:12.897Z,100.00
2018-12-09T21:17:42.737Z,100.00
2018-12-09T21:20:12.899Z,100.00
2018-12-09T21:22:43.032Z,100.00
2018-12-09T21:25:13.084Z,100.00
2018-12-09T21:27:43.104Z,100.00
2018-12-09T21:30:12.992Z,100.00
2018-12-09T21:32:42.804Z,100.00
2018-12-09T21:35:12.897Z,100.00
2018-12-09T21:37:43.585Z,100.00
2018-12-09T21:40:13.472Z,100.00
2018-12-09T21:42:43.649Z,100.00
2018-12-09T21:45:13.951Z,100.00
2018-12-09T21:47:44.752Z,100.00
2018-12-09T21:50:15.060Z,100.00
2018-12-09T21:52:45.197Z,100.00
2018-12-09T21:55:15.317Z,100.00
2018-12-09T21:57:45.164Z,100.00
2018-12-09T22:00:16.220Z,100.00
2018-12-09T22:02:46.118Z,100.00
2018-12-09T22:05:16.000Z,100.00
2018-12-09T22:07:45.906Z,100.00
2018-12-09T22:10:15.737Z,100.00
2018-12-09T22:12:46.233Z,100.00
2018-12-09T22:15:16.241Z,100.00
2018-12-09T22:17:46.845Z,100.00
2018-12-09T22:20:16.831Z,100.00
2018-12-09T22:22:46.712Z,100.00
2018-12-09T22:25:16.780Z,100.00
2018-12-09T22:27:46.596Z,100.00
2018-12-09T22:30:16.504Z,100.00
2018-12-09T22:32:46.389Z,100.00
2018-12-09T22:35:16.313Z,100.00
2018-12-09T22:37:46.182Z,100.00
2018-12-09T22:40:16.241Z,100.00
2018-12-09T22:42:46.760Z,100.00
2018-12-09T22:45:16.596Z,100.00
2018-12-09T22:47:46.419Z,100.00
2018-12-09T22:50:16.409Z,100.00
2018-12-09T22:52:46.344Z,100.00
2018-12-09T22:55:16.779Z,100.00
2018-12-09T22:57:46.768Z,100.00
2018-12-09T23:00:25.833Z,100.00
2018-12-09T23:03:03.115Z,100.00
2018-12-09T23:05:33.244Z,100.00
2018-12-09T23:08:03.196Z,100.00
2018-12-09T23:10:33.176Z,100.00
2018-12-09T23:13:03.344Z,100.00
2018-12-09T23:15:33.200Z,100.00
2018-12-09T23:18:03.079Z,100.00
2018-12-09T23:20:32.954Z,100.00
2018-12-09T23:23:02.819Z,100.00
2018-12-09T23:25:33.278Z,100.00
2018-12-09T23:28:03.164Z,100.00
2018-12-09T23:30:32.917Z,100.00
2018-12-09T23:33:02.815Z,100.00
2018-12-09T23:35:32.659Z,100.00
2018-12-09T23:38:02.455Z,100.00
2018-12-09T23:40:32.312Z,100.00
2018-12-09T23:43:02.336Z,100.00
2018-12-09T23:45:32.220Z,100.00
2018-12-09T23:48:03.060Z,100.00
2018-12-09T23:50:33.159Z,100.00
2018-12-09T23:53:02.991Z,100.00
2018-12-09T23:55:32.827Z,100.00
2018-12-09T23:58:02.599Z,100.00
